createdAt,value
2019-02-28T00:00:55.260Z,100791.26
2019-02-28T00:03:26.123Z,100783.92
2019-02-28T00:05:55.882Z,100787.98
2019-02-28T00:08:25.160Z,100786.57
2019-02-28T00:10:54.536Z,100782.02
2019-02-28T00:13:24.044Z,100792.00
2019-02-28T00:15:53.326Z,100791.36
2019-02-28T00:18:22.673Z,100789.66
2019-02-28T00:20:52.245Z,100795.13
2019-02-28T00:23:22.000Z,100784.34
2019-02-28T00:25:51.999Z,100785.34
2019-02-28T00:28:23.112Z,100788.96
2019-02-28T00:30:52.701Z,100793.83
2019-02-28T00:33:22.089Z,100797.11
2019-02-28T00:35:51.393Z,100800.66
2019-02-28T00:38:20.718Z,100805.80
2019-02-28T00:40:50.209Z,100813.18
2019-02-28T00:43:22.301Z,100816.23
2019-02-28T00:45:50.610Z,100807.17
2019-02-28T00:48:21.672Z,100805.31
2019-02-28T00:50:51.185Z,100798.58
2019-02-28T00:53:20.451Z,100799.12
2019-02-28T00:55:49.940Z,100799.56
2019-02-28T00:58:19.308Z,100793.13
2019-02-28T01:00:48.628Z,100793.40
2019-02-28T01:03:17.974Z,100784.55
2019-02-28T01:05:47.312Z,100772.58
2019-02-28T01:08:19.173Z,100763.94
2019-02-28T01:10:47.738Z,100756.56
2019-02-28T01:13:17.074Z,100747.32
2019-02-28T01:15:46.439Z,100748.91
2019-02-28T01:18:15.810Z,100740.66
2019-02-28T01:20:49.994Z,100732.14
2019-02-28T01:23:16.139Z,100728.53
2019-02-28T01:25:45.762Z,100726.40
2019-02-28T01:28:15.126Z,100721.48
2019-02-28T01:30:44.398Z,100714.55
2019-02-28T01:33:13.690Z,100706.67
2019-02-28T01:35:43.010Z,100708.31
2019-02-28T01:38:12.328Z,100706.07
2019-02-28T01:40:41.722Z,100695.14
2019-02-28T01:43:11.101Z,100689.91
2019-02-28T01:45:43.492Z,100683.85
2019-02-28T01:48:11.642Z,100680.20
2019-02-28T01:50:40.956Z,100681.14
2019-02-28T01:53:10.261Z,100687.08
2019-02-28T01:55:39.767Z,100683.00
2019-02-28T01:58:09.156Z,100689.83
2019-02-28T02:00:38.456Z,100694.45
2019-02-28T02:03:09.558Z,100683.16
2019-02-28T02:05:38.988Z,100682.08
2019-02-28T02:08:08.321Z,100680.63
2019-02-28T02:10:37.834Z,100678.19
2019-02-28T02:13:07.152Z,100667.92
2019-02-28T02:15:36.481Z,100676.92
2019-02-28T02:18:06.350Z,100683.02
2019-02-28T02:20:36.961Z,100674.34
2019-02-28T02:23:06.309Z,100672.44
2019-02-28T02:25:37.525Z,100649.99
2019-02-28T02:28:06.978Z,100643.34
2019-02-28T02:30:36.362Z,100642.47
2019-02-28T02:33:05.904Z,100647.97
2019-02-28T02:35:35.202Z,100645.24
2019-02-28T02:38:04.832Z,100643.78
2019-02-28T02:40:34.441Z,100644.42
2019-02-28T02:43:03.696Z,100650.93
2019-02-28T02:45:33.042Z,100655.55
2019-02-28T02:48:05.298Z,100658.16
2019-02-28T02:50:35.908Z,100651.56
2019-02-28T02:53:06.459Z,100658.05
2019-02-28T02:55:35.926Z,100658.81
2019-02-28T02:58:05.356Z,100667.25
2019-02-28T03:00:34.661Z,100663.63
2019-02-28T03:03:06.167Z,100651.51
2019-02-28T03:05:36.674Z,100661.11
2019-02-28T03:08:06.152Z,100655.83
2019-02-28T03:10:35.436Z,100665.89
2019-02-28T03:13:06.262Z,100664.19
2019-02-28T03:15:35.871Z,100664.06
2019-02-28T03:18:05.167Z,100654.13
2019-02-28T03:20:34.478Z,100646.07
2019-02-28T03:23:03.898Z,100647.23
2019-02-28T03:25:33.184Z,100645.05
2019-02-28T03:28:03.464Z,100644.71
2019-02-28T03:30:33.741Z,100637.13
2019-02-28T03:33:03.461Z,100635.00
2019-02-28T03:35:43.147Z,100627.86
2019-02-28T03:38:10.545Z,100617.16
2019-02-28T03:40:39.714Z,100605.58
2019-02-28T03:43:07.003Z,100588.89
2019-02-28T03:45:36.517Z,100592.58
2019-02-28T03:48:05.951Z,100585.01
2019-02-28T03:50:35.217Z,100584.67
2019-02-28T03:53:04.909Z,100580.02
2019-02-28T03:55:40.317Z,100588.08
2019-02-28T03:58:05.966Z,100583.45
2019-02-28T04:00:35.448Z,100605.55
2019-02-28T04:03:04.778Z,100608.42
2019-02-28T04:05:34.034Z,100616.14
2019-02-28T04:08:03.462Z,100644.13
2019-02-28T04:10:32.817Z,100645.39
2019-02-28T04:13:02.194Z,100625.67
2019-02-28T04:15:31.721Z,100621.19
2019-02-28T04:18:06.880Z,100612.98
2019-02-28T04:20:36.381Z,100609.05
2019-02-28T04:23:03.206Z,100600.53
2019-02-28T04:25:32.499Z,100605.06
2019-02-28T04:28:02.148Z,100604.16
2019-02-28T04:30:34.292Z,100591.22
2019-02-28T04:33:03.785Z,100596.06
2019-02-28T04:35:33.105Z,100575.81
2019-02-28T04:38:02.463Z,100575.95
2019-02-28T04:40:32.008Z,100597.55
2019-02-28T04:43:01.341Z,100606.19
2019-02-28T04:45:30.712Z,100611.09
2019-02-28T04:48:00.188Z,100617.43
2019-02-28T04:50:32.143Z,100621.86
2019-02-28T04:53:00.521Z,100618.25
2019-02-28T04:55:30.635Z,100610.30
2019-02-28T04:58:00.029Z,100623.44
2019-02-28T05:00:29.512Z,100613.23
2019-02-28T05:02:58.912Z,100613.72
2019-02-28T05:05:28.339Z,100619.70
2019-02-28T05:07:57.797Z,100624.52
2019-02-28T05:10:27.120Z,100629.97
2019-02-28T05:12:56.436Z,100640.77
2019-02-28T05:15:25.870Z,100641.81
2019-02-28T05:17:55.887Z,100637.85
2019-02-28T05:20:26.059Z,100640.23
2019-02-28T05:22:55.389Z,100646.97
2019-02-28T05:25:24.770Z,100641.72
2019-02-28T05:27:54.115Z,100635.73
2019-02-28T05:30:23.626Z,100635.92
2019-02-28T05:32:52.925Z,100643.20
2019-02-28T05:35:25.585Z,100647.28
2019-02-28T05:37:53.934Z,100657.89
2019-02-28T05:40:23.211Z,100656.14
2019-02-28T05:42:57.961Z,100654.81
2019-02-28T05:45:23.600Z,100661.02
2019-02-28T05:47:52.926Z,100664.42
2019-02-28T05:50:22.288Z,100668.37
2019-02-28T05:52:51.669Z,100670.52
2019-02-28T05:55:24.645Z,100679.78
2019-02-28T05:57:52.315Z,100691.92
2019-02-28T06:00:22.857Z,100690.91
2019-02-28T06:02:54.480Z,100693.56
2019-02-28T06:05:23.267Z,100687.77
2019-02-28T06:07:52.535Z,100694.91
2019-02-28T06:10:24.718Z,100692.15
2019-02-28T06:12:53.100Z,100699.41
2019-02-28T06:15:22.419Z,100703.00
2019-02-28T06:17:54.613Z,100704.70
2019-02-28T06:20:22.847Z,100719.85
2019-02-28T06:22:52.230Z,100721.98
2019-02-28T06:25:23.634Z,100725.13
2019-02-28T06:27:52.770Z,100722.06
2019-02-28T06:30:22.088Z,100724.05
2019-02-28T06:32:51.382Z,100715.43
2019-02-28T06:35:21.035Z,100717.90
2019-02-28T06:37:50.372Z,100717.09
2019-02-28T06:40:19.674Z,100719.13
2019-02-28T06:42:49.141Z,100721.45
2019-02-28T06:45:18.458Z,100720.92
2019-02-28T06:47:49.763Z,100731.73
2019-02-28T06:50:19.027Z,100733.48
2019-02-28T06:52:48.365Z,100746.34
2019-02-28T06:55:21.947Z,100739.21
2019-02-28T06:57:51.344Z,100737.22
2019-02-28T07:00:20.668Z,100740.58
2019-02-28T07:02:50.386Z,100753.66
2019-02-28T07:05:24.787Z,100755.02
2019-02-28T07:07:50.708Z,100757.11
2019-02-28T07:10:20.155Z,100762.37
2019-02-28T07:12:49.464Z,100761.86
2019-02-28T07:15:23.640Z,100755.52
2019-02-28T07:17:50.165Z,100757.66
2019-02-28T07:20:19.495Z,100747.64
2019-02-28T07:22:54.496Z,100747.87
2019-02-28T07:25:19.832Z,100755.51
2019-02-28T07:27:49.106Z,100763.78
2019-02-28T07:30:19.249Z,100757.77
2019-02-28T07:32:48.860Z,100760.86
2019-02-28T07:35:18.273Z,100761.44
2019-02-28T07:37:53.390Z,100752.88
2019-02-28T07:40:18.796Z,100753.86
2019-02-28T07:42:48.069Z,100759.28
2019-02-28T07:45:17.453Z,100761.40
2019-02-28T07:47:51.713Z,100756.66
2019-02-28T07:50:18.189Z,100759.44
2019-02-28T07:52:47.592Z,100769.39
2019-02-28T07:55:17.203Z,100766.00
2019-02-28T07:57:51.175Z,100773.03
2019-02-28T08:00:18.899Z,100774.51
2019-02-28T08:02:48.114Z,100777.89
2019-02-28T08:05:17.441Z,100768.42
2019-02-28T08:07:52.188Z,100767.64
2019-02-28T08:10:19.063Z,100778.88
2019-02-28T08:12:48.638Z,100777.00
2019-02-28T08:15:22.352Z,100784.40
2019-02-28T08:17:51.287Z,100773.69
2019-02-28T08:20:21.148Z,100788.22
2019-02-28T08:22:50.579Z,100789.56
2019-02-28T08:25:20.207Z,100797.59
2019-02-28T08:27:49.541Z,100802.66
2019-02-28T08:30:20.633Z,100808.15
2019-02-28T08:32:50.146Z,100800.88
2019-02-28T08:35:19.708Z,100791.28
2019-02-28T08:37:55.719Z,100789.05
2019-02-28T08:40:20.679Z,100787.34
2019-02-28T08:42:50.132Z,100797.20
2019-02-28T08:45:19.392Z,100802.14
2019-02-28T08:47:48.775Z,100800.44
2019-02-28T08:50:21.490Z,100798.47
2019-02-28T08:52:51.464Z,100798.47
2019-02-28T08:55:28.186Z,100795.14
2019-02-28T08:57:56.911Z,100808.85
2019-02-28T09:00:23.427Z,100814.95
2019-02-28T09:02:53.853Z,100822.63
2019-02-28T09:05:27.287Z,100823.73
2019-02-28T09:07:54.553Z,100821.81
2019-02-28T09:10:23.950Z,100812.77
2019-02-28T09:12:53.246Z,100813.06
2019-02-28T09:15:22.791Z,100818.28
2019-02-28T09:17:52.135Z,100826.78
2019-02-28T09:20:21.653Z,100816.41
2019-02-28T09:22:51.138Z,100809.27
2019-02-28T09:25:21.985Z,100812.56
2019-02-28T09:27:51.676Z,100811.98
2019-02-28T09:30:30.679Z,100816.63
2019-02-28T09:33:00.045Z,100818.28
2019-02-28T09:35:29.300Z,100819.14
2019-02-28T09:38:00.295Z,100820.80
2019-02-28T09:40:30.602Z,100816.41
2019-02-28T09:43:00.143Z,100814.77
2019-02-28T09:45:29.419Z,100821.64
2019-02-28T09:48:01.884Z,100825.22
2019-02-28T09:50:29.921Z,100816.72
2019-02-28T09:52:59.271Z,100817.02
2019-02-28T09:55:34.122Z,100814.83
2019-02-28T09:57:59.907Z,100819.77
2019-02-28T10:00:29.404Z,100816.22
2019-02-28T10:02:58.738Z,100818.19
2019-02-28T10:05:28.202Z,100821.22
2019-02-28T10:08:01.576Z,100818.20
2019-02-28T10:10:28.471Z,100823.66
2019-02-28T10:12:57.995Z,100820.40
2019-02-28T10:15:27.762Z,100814.17
2019-02-28T10:17:57.106Z,100825.25
2019-02-28T10:20:28.520Z,100821.62
2019-02-28T10:22:58.038Z,100814.84
2019-02-28T10:25:27.318Z,100813.66
2019-02-28T10:28:01.678Z,100823.51
2019-02-28T10:30:32.332Z,100831.38
2019-02-28T10:32:58.951Z,100824.16
2019-02-28T10:35:28.258Z,100823.64
2019-02-28T10:37:58.827Z,100815.63
2019-02-28T10:40:28.530Z,100812.43
2019-02-28T10:42:57.810Z,100820.77
2019-02-28T10:45:27.554Z,100820.20
2019-02-28T10:47:56.927Z,100821.13
2019-02-28T10:50:32.184Z,100817.58
2019-02-28T10:52:57.625Z,100817.34
2019-02-28T10:55:27.231Z,100818.74
2019-02-28T10:57:56.643Z,100818.00
2019-02-28T11:00:32.803Z,100810.86
2019-02-28T11:03:01.095Z,100810.45
2019-02-28T11:05:32.015Z,100809.16
2019-02-28T11:08:02.643Z,100813.94
2019-02-28T11:10:37.281Z,100811.48
2019-02-28T11:13:12.099Z,100810.80
2019-02-28T11:15:41.952Z,100814.80
2019-02-28T11:18:11.716Z,100804.31
2019-02-28T11:20:42.061Z,100811.75
2019-02-28T11:23:14.970Z,100820.37
2019-02-28T11:25:43.583Z,100807.25
2019-02-28T11:28:13.745Z,100805.13
2019-02-28T11:30:44.829Z,100808.05
2019-02-28T11:33:15.076Z,100814.17
2019-02-28T11:35:44.344Z,100806.62
2019-02-28T11:38:13.772Z,100801.88
2019-02-28T11:40:44.561Z,100802.39
2019-02-28T11:43:14.055Z,100802.99
2019-02-28T11:45:44.144Z,100798.41
2019-02-28T11:48:18.928Z,100807.70
2019-02-28T11:50:45.141Z,100805.70
2019-02-28T11:53:14.640Z,100802.28
2019-02-28T11:55:43.958Z,100802.25
2019-02-28T11:58:16.702Z,100800.30
2019-02-28T12:00:44.621Z,100808.78
2019-02-28T12:03:14.195Z,100816.45
2019-02-28T12:05:43.560Z,100825.07
2019-02-28T12:08:12.871Z,100828.94
2019-02-28T12:10:42.354Z,100822.14
2019-02-28T12:13:11.623Z,100822.41
2019-02-28T12:15:40.955Z,100825.50
2019-02-28T12:18:10.341Z,100824.20
2019-02-28T12:20:39.661Z,100825.02
2019-02-28T12:23:08.906Z,100818.39
2019-02-28T12:25:39.505Z,100820.59
2019-02-28T12:28:09.200Z,100828.03
2019-02-28T12:30:40.231Z,100826.66
2019-02-28T12:33:09.626Z,100834.88
2019-02-28T12:35:40.615Z,100832.43
2019-02-28T12:38:10.278Z,100836.81
2019-02-28T12:40:42.541Z,100832.12
2019-02-28T12:43:10.705Z,100829.63
2019-02-28T12:45:40.078Z,100843.66
2019-02-28T12:48:09.333Z,100830.16
2019-02-28T12:50:38.640Z,100825.20
2019-02-28T12:53:08.163Z,100827.09
2019-02-28T12:55:38.977Z,100826.23
2019-02-28T12:58:08.520Z,100827.66
2019-02-28T13:00:38.665Z,100822.45
2019-02-28T13:03:09.166Z,100822.14
2019-02-28T13:05:38.541Z,100820.17
2019-02-28T13:08:08.069Z,100818.58
2019-02-28T13:10:37.396Z,100823.86
2019-02-28T13:13:07.764Z,100820.59
2019-02-28T13:15:37.682Z,100816.69
2019-02-28T13:18:09.030Z,100835.44
2019-02-28T13:20:38.627Z,100831.27
2019-02-28T13:23:07.915Z,100824.69
2019-02-28T13:25:37.154Z,100830.75
2019-02-28T13:28:07.658Z,100826.88
2019-02-28T13:30:39.872Z,100824.39
2019-02-28T13:33:10.993Z,100825.25
2019-02-28T13:35:45.734Z,100821.12
2019-02-28T13:38:17.346Z,100819.22
2019-02-28T13:40:44.790Z,100823.64
2019-02-28T13:43:20.160Z,100826.92
2019-02-28T13:45:43.823Z,100825.25
2019-02-28T13:48:13.135Z,100830.45
2019-02-28T13:50:42.494Z,100830.75
2019-02-28T13:53:19.129Z,100836.30
2019-02-28T13:55:43.193Z,100831.86
2019-02-28T13:58:12.523Z,100824.16
2019-02-28T14:00:45.557Z,100822.49
2019-02-28T14:03:13.121Z,100825.50
2019-02-28T14:05:42.480Z,100829.41
2019-02-28T14:08:12.404Z,100830.27
2019-02-28T14:10:42.010Z,100831.94
2019-02-28T14:13:11.470Z,100831.94
2019-02-28T14:15:42.635Z,100828.70
2019-02-28T14:18:12.346Z,100835.02
2019-02-28T14:20:41.661Z,100839.97
2019-02-28T14:23:11.067Z,100835.58
2019-02-28T14:25:41.202Z,100828.41
2019-02-28T14:28:10.743Z,100826.47
2019-02-28T14:30:40.088Z,100827.84
2019-02-28T14:33:09.799Z,100836.66
2019-02-28T14:35:39.068Z,100833.97
2019-02-28T14:38:08.371Z,100845.53
2019-02-28T14:40:37.666Z,100846.62
2019-02-28T14:43:07.013Z,100851.04
2019-02-28T14:45:39.180Z,100850.50
2019-02-28T14:48:07.632Z,100856.88
2019-02-28T14:50:36.941Z,100855.23
2019-02-28T14:53:06.276Z,100854.66
2019-02-28T14:55:37.391Z,100864.84
2019-02-28T14:58:06.845Z,100865.13
2019-02-28T15:00:38.904Z,100867.63
2019-02-28T15:03:08.094Z,100866.82
2019-02-28T15:05:38.188Z,100867.92
2019-02-28T15:08:07.429Z,100867.89
2019-02-28T15:10:36.802Z,100871.50
2019-02-28T15:13:06.349Z,100870.41
2019-02-28T15:15:36.471Z,100870.41
2019-02-28T15:18:06.250Z,100866.56
2019-02-28T15:20:35.879Z,100878.39
2019-02-28T15:23:05.195Z,100877.84
2019-02-28T15:25:34.420Z,100882.55
2019-02-28T15:28:03.845Z,100874.58
2019-02-28T15:30:34.815Z,100875.11
2019-02-28T15:33:04.532Z,100883.63
2019-02-28T15:35:34.035Z,100871.22
2019-02-28T15:38:05.847Z,100882.22
2019-02-28T15:40:35.576Z,100890.73
2019-02-28T15:43:04.855Z,100893.74
2019-02-28T15:45:36.261Z,100888.79
2019-02-28T15:48:05.244Z,100895.63
2019-02-28T15:50:34.487Z,100897.77
2019-02-28T15:53:03.794Z,100901.03
2019-02-28T15:55:35.074Z,100903.73
2019-02-28T15:58:05.767Z,100899.88
2019-02-28T16:00:36.449Z,100906.97
2019-02-28T16:03:05.951Z,100906.41
2019-02-28T16:05:35.217Z,100910.23
2019-02-28T16:08:08.670Z,100907.77
2019-02-28T16:10:35.694Z,100913.46
2019-02-28T16:13:07.114Z,100915.63
2019-02-28T16:15:36.429Z,100918.34
2019-02-28T16:18:08.856Z,100915.58
2019-02-28T16:20:38.273Z,100920.14
2019-02-28T16:23:07.782Z,100925.05
2019-02-28T16:25:37.274Z,100925.45
2019-02-28T16:28:08.782Z,100931.13
2019-02-28T16:30:38.816Z,100933.02
2019-02-28T16:33:08.290Z,100935.11
2019-02-28T16:35:37.524Z,100939.38
2019-02-28T16:38:09.833Z,100940.03
2019-02-28T16:40:38.044Z,100945.20
2019-02-28T16:43:07.368Z,100950.32
2019-02-28T16:45:41.080Z,100950.23
2019-02-28T16:48:11.263Z,100947.78
2019-02-28T16:50:40.648Z,100956.20
2019-02-28T16:53:14.798Z,100954.13
2019-02-28T16:55:41.356Z,100952.58
2019-02-28T16:58:10.626Z,100955.14
2019-02-28T17:00:42.487Z,100957.44
2019-02-28T17:03:11.189Z,100959.21
2019-02-28T17:05:40.544Z,100967.84
2019-02-28T17:08:10.280Z,100968.75
2019-02-28T17:10:43.413Z,100972.86
2019-02-28T17:13:22.141Z,100973.52
2019-02-28T17:16:09.010Z,100971.73
2019-02-28T17:18:38.596Z,100976.05
2019-02-28T17:21:07.854Z,100982.49
2019-02-28T17:23:38.189Z,100975.73
2019-02-28T17:26:07.854Z,100978.60
2019-02-28T17:28:51.186Z,100987.42
2019-02-28T17:31:41.102Z,100989.20
2019-02-28T17:34:11.416Z,100998.35
2019-02-28T17:36:40.711Z,100995.45
2019-02-28T17:39:11.450Z,100999.59
2019-02-28T17:41:41.354Z,101000.88
2019-02-28T17:44:41.017Z,101000.55
2019-02-28T17:47:38.535Z,101007.62
2019-02-28T17:50:42.813Z,101013.23
2019-02-28T17:53:50.331Z,101015.50
2019-02-28T17:56:37.598Z,101021.41
2019-02-28T18:00:16.129Z,101033.13
2019-02-28T18:03:27.374Z,101029.92
2019-02-28T18:06:32.253Z,101024.30
2019-02-28T18:09:48.184Z,101016.20
2019-02-28T18:12:44.342Z,101017.26
2019-02-28T18:15:49.592Z,101020.30
2019-02-28T18:18:59.878Z,101024.21
2019-02-28T18:22:07.662Z,101026.39
2019-02-28T18:25:21.536Z,101030.75
2019-02-28T18:28:29.558Z,101038.02
2019-02-28T18:31:06.899Z,101044.44
2019-02-28T18:33:36.751Z,101035.19
2019-02-28T18:36:09.175Z,101043.34
2019-02-28T18:38:38.765Z,101045.62
2019-02-28T18:41:08.157Z,101045.47
2019-02-28T18:43:37.605Z,101044.72
2019-02-28T18:46:07.691Z,101041.39
2019-02-28T18:48:37.046Z,101042.30
2019-02-28T18:51:06.364Z,101041.47
2019-02-28T18:53:35.770Z,101046.77
2019-02-28T18:56:05.036Z,101047.89
2019-02-28T18:58:34.401Z,101049.93
2019-02-28T19:01:03.952Z,101055.14
2019-02-28T19:03:33.339Z,101057.47
2019-02-28T19:06:02.705Z,101058.44
2019-02-28T19:08:32.173Z,101065.81
2019-02-28T19:11:01.442Z,101070.03
2019-02-28T19:13:30.769Z,101067.45
2019-02-28T19:16:00.187Z,101066.38
2019-02-28T19:18:29.567Z,101076.39
2019-02-28T19:20:58.849Z,101078.85
2019-02-28T19:23:28.098Z,101084.55
2019-02-28T19:25:57.387Z,101088.66
2019-02-28T19:28:26.683Z,101092.80
2019-02-28T19:30:56.273Z,101091.48
2019-02-28T19:33:25.591Z,101097.89
2019-02-28T19:35:54.896Z,101094.91
2019-02-28T19:38:24.195Z,101093.48
2019-02-28T19:40:53.513Z,101089.47
2019-02-28T19:43:22.800Z,101093.48
2019-02-28T19:45:52.538Z,101093.50
2019-02-28T19:48:21.788Z,101097.22
2019-02-28T19:50:51.054Z,101106.62
2019-02-28T19:53:20.736Z,101101.67
2019-02-28T19:55:50.073Z,101107.11
2019-02-28T19:58:19.363Z,101119.95
2019-02-28T20:00:48.787Z,101117.59
2019-02-28T20:03:18.064Z,101115.19
2019-02-28T20:05:47.368Z,101116.46
2019-02-28T20:08:16.850Z,101115.41
2019-02-28T20:10:47.169Z,101117.64
2019-02-28T20:13:16.634Z,101115.87
2019-02-28T20:15:46.040Z,101124.83
2019-02-28T20:18:15.465Z,101128.48
2019-02-28T20:20:44.839Z,101126.71
2019-02-28T20:23:14.154Z,101136.42
2019-02-28T20:25:43.474Z,101141.73
2019-02-28T20:28:12.795Z,101143.69
2019-02-28T20:30:42.202Z,101143.27
2019-02-28T20:33:11.498Z,101150.88
2019-02-28T20:35:40.720Z,101151.83
2019-02-28T20:38:10.274Z,101141.92
2019-02-28T20:40:39.632Z,101133.27
2019-02-28T20:43:08.962Z,101128.40
2019-02-28T20:45:38.319Z,101128.81
2019-02-28T20:48:07.642Z,101129.34
2019-02-28T20:50:39.309Z,101124.73
2019-02-28T20:53:09.044Z,101132.06
2019-02-28T20:55:38.310Z,101131.86
2019-02-28T20:58:07.674Z,101138.50
2019-02-28T21:00:36.953Z,101137.99
2019-02-28T21:03:06.417Z,101143.73
2019-02-28T21:05:35.932Z,101139.13
2019-02-28T21:08:05.341Z,101144.34
2019-02-28T21:10:34.803Z,101144.09
2019-02-28T21:13:04.269Z,101140.56
2019-02-28T21:15:33.502Z,101146.62
2019-02-28T21:18:02.885Z,101148.06
2019-02-28T21:20:32.270Z,101148.78
2019-02-28T21:23:01.645Z,101152.23
2019-02-28T21:25:30.994Z,101148.56
2019-02-28T21:28:00.514Z,101161.67
2019-02-28T21:30:29.799Z,101158.75
2019-02-28T21:32:59.078Z,101162.27
2019-02-28T21:35:29.415Z,101155.59
2019-02-28T21:37:58.726Z,101150.80
2019-02-28T21:40:28.073Z,101148.17
2019-02-28T21:42:57.523Z,101144.12
2019-02-28T21:45:27.009Z,101150.02
2019-02-28T21:47:56.290Z,101149.89
2019-02-28T21:50:25.653Z,101154.88
2019-02-28T21:52:54.982Z,101151.16
2019-02-28T21:55:24.320Z,101153.13
2019-02-28T21:57:53.870Z,101152.90
2019-02-28T22:00:24.115Z,101151.11
2019-02-28T22:02:53.337Z,101145.48
2019-02-28T22:05:22.611Z,101145.27
2019-02-28T22:07:51.921Z,101150.03
2019-02-28T22:10:21.206Z,101151.98
2019-02-28T22:12:50.602Z,101152.41
2019-02-28T22:15:19.976Z,101155.69
2019-02-28T22:17:49.341Z,101157.47
2019-02-28T22:20:18.880Z,101155.16
2019-02-28T22:22:48.201Z,101149.97
2019-02-28T22:25:17.468Z,101155.98
2019-02-28T22:27:47.205Z,101152.59
2019-02-28T22:30:49.224Z,101143.17
2019-02-28T22:33:40.936Z,101148.06
2019-02-28T22:36:12.401Z,101145.87
2019-02-28T22:38:41.742Z,101143.09
2019-02-28T22:41:11.145Z,101145.39
2019-02-28T22:43:40.396Z,101147.58
2019-02-28T22:46:09.712Z,101143.09
2019-02-28T22:48:39.041Z,101148.06
2019-02-28T22:51:08.383Z,101146.57
2019-02-28T22:56:07.192Z,101139.98
2019-02-28T22:58:36.503Z,101134.92
2019-02-28T23:01:12.336Z,101133.55
2019-02-28T23:03:41.805Z,101132.06
2019-02-28T23:06:11.245Z,101131.84
2019-02-28T23:08:40.858Z,101135.32
2019-02-28T23:11:10.106Z,101127.50
2019-02-28T23:13:39.445Z,101121.14
2019-02-28T23:16:08.955Z,101116.85
2019-02-28T23:18:38.211Z,101109.27
2019-02-28T23:21:07.557Z,101110.20
2019-02-28T23:23:36.962Z,101110.72
2019-02-28T23:26:13.912Z,101109.58
2019-02-28T23:28:49.743Z,101106.64
2019-02-28T23:31:54.153Z,101114.92
2019-02-28T23:34:47.143Z,101111.27
2019-02-28T23:37:16.478Z,101110.20
2019-02-28T23:39:45.801Z,101113.19
2019-02-28T23:42:15.313Z,101110.22
2019-02-28T23:44:44.624Z,101110.63
2019-02-28T23:47:13.958Z,101112.05
2019-02-28T23:49:43.387Z,101113.89
2019-02-28T23:52:12.694Z,101109.29
2019-02-28T23:54:42.035Z,101108.09
2019-02-28T23:57:11.320Z,101110.54
2019-02-28T23:59:40.569Z,101104.17
